Time;durP1;ratioP1;P1;durP2;ratioP2;P2;SDS_P1;SDS_P2;PMS_P1;PMS_P2;Temp;Humidity;BMP_temperature;BMP_pressure;BME280_temperature;BME280_humidity;BME280_pressure;Samples;Min_cycle;Max_cycle;Signal;HPM_P1;HPM_P2
2021/05/03 00:00:26;;;;;;;1.05;0.90;;;;;;;6.32;38.01;92590.81;6251677;22;20118;-90
2021/05/03 00:03:26;;;;;;;1.17;0.75;;;;;;;6.15;38.62;92588.44;6273567;22;20048;-90
2021/05/03 00:06:14;;;;;;;2.42;0.80;;;;;;;6.36;38.60;92622.28;6249604;22;20047;-90
2021/05/03 00:09:13;;;;;;;0.60;0.60;;;;;;;6.17;37.47;92577.75;6274562;22;20071;-90
2021/05/03 00:15:35;;;;;;;;;;;;;;;;;;;;;
2021/05/03 00:18:05;;;;;;;0.68;0.65;;;;;;;6.35;38.03;92613.72;6275268;22;20019;-90
2021/05/03 00:21:15;;;;;;;0.93;0.80;;;;;;;6.17;38.29;92595.97;6264831;22;20317;-89
2021/05/03 00:24:04;;;;;;;;;;;;;;;;;;;;;
2021/05/03 00:26:58;;;;;;;2.03;0.80;;;;;;;6.21;38.29;92589.22;6233680;22;20029;-91
2021/05/03 00:29:31;;;;;;;0.88;0.70;;;;;;;6.24;38.33;92601.72;6228879;22;20021;-91
2021/05/03 00:32:30;;;;;;;0.73;0.60;;;;;;;6.16;38.95;92594.41;6254600;22;20028;-90
2021/05/03 00:35:39;;;;;;;;;;;;;;;;;;;;;
2021/05/03 00:38:36;;;;;;;1.17;0.80;;;;;;;6.39;38.35;92638.13;6151084;23;20021;-90
2021/05/03 00:41:42;;;;;;;1.08;0.75;;;;;;;6.33;38.17;92615.78;6236964;22;20025;-90
2021/05/03 00:44:45;;;;;;;1.23;0.90;;;;;;;6.71;37.46;92647.59;6248326;22;20342;-88
2021/05/03 00:47:23;;;;;;;0.80;0.70;;;;;;;6.51;37.79;92631.91;6207489;22;20013;-90
2021/05/03 00:50:28;;;;;;;1.02;0.80;;;;;;;6.30;37.43;92599.91;6253533;22;20018;-90
2021/05/03 00:53:34;;;;;;;;;;;;;;;;;;;;;
2021/05/03 00:56:57;;;;;;;;;;;;;;;;;;;;;
2021/05/03 01:00:23;;;;;;;;;;;;;;;;;;;;;
2021/05/03 01:03:06;;;;;;;0.50;0.50;;;;;;;6.24;37.60;92596.53;6150902;22;20013;-91
2021/05/03 01:05:58;;;;;;;0.90;0.80;;;;;;;6.32;37.00;92600.44;6210353;22;20083;-91
2021/05/03 01:12:04;;;;;;;1.20;0.75;;;;;;;6.58;36.99;92617.66;6253690;22;20087;-90
2021/05/03 01:14:53;;;;;;;0.68;0.60;;;;;;;6.68;36.81;92629.88;6228235;22;20024;-90
2021/05/03 01:17:45;;;;;;;1.35;0.60;;;;;;;6.47;37.14;92605.66;6253841;22;20017;-90
2021/05/03 01:20:34;;;;;;;;;;;;;;;;;;;;;
2021/05/03 01:23:15;;;;;;;0.70;0.70;;;;;;;6.28;36.83;92612.38;6274359;22;20016;-90
2021/05/03 01:26:17;;;;;;;0.60;0.60;;;;;;;6.39;37.22;92611.38;6274929;22;20384;-91
2021/05/03 01:29:06;;;;;;;0.73;0.70;;;;;;;6.61;37.75;92668.38;6236612;22;20026;-90
2021/05/03 01:35:00;;;;;;;;;;;;;;;;;;;;;
2021/05/03 01:37:52;;;;;;;0.63;0.60;;;;;;;6.18;37.46;92626.13;6277665;22;20276;-90
2021/05/03 01:40:29;;;;;;;1.38;0.73;;;;;;;6.46;38.17;92677.72;6227920;22;20051;-89
2021/05/03 01:43:28;;;;;;;0.70;0.70;;;;;;;6.05;37.93;92619.56;6252811;22;20051;-90
2021/05/03 01:46:27;;;;;;;0.52;0.52;;;;;;;6.02;38.59;92620.88;6270908;22;20012;-90
2021/05/03 01:56:19;;;;;;;1.02;0.65;;;;;;;6.20;38.40;92647.47;6239469;22;20099;-91
2021/05/03 01:59:43;;;;;;;;;;;;;;;;;;;;;
2021/05/03 02:02:52;;;;;;;0.70;0.68;;;;;;;5.90;39.02;92615.09;6277705;22;20016;-90
2021/05/03 02:05:37;;;;;;;;;;;;;;;;;;;;;
2021/05/03 02:11:40;;;;;;;0.70;0.60;;;;;;;5.74;39.21;92627.22;6270304;22;20099;-91
2021/05/03 02:14:25;;;;;;;0.60;0.60;;;;;;;5.75;38.73;92622.81;6251092;22;20035;-90
2021/05/03 02:20:51;;;;;;;1.10;0.70;;;;;;;5.73;38.74;92623.06;6258993;22;20098;-90
2021/05/03 02:23:30;;;;;;;0.60;0.60;;;;;;;5.72;38.56;92631.09;6251950;22;20067;-90
2021/05/03 02:26:01;;;;;;;0.95;0.80;;;;;;;6.27;37.87;92678.41;6276946;22;20015;-90
2021/05/03 02:28:36;;;;;;;3.05;0.70;;;;;;;6.21;38.85;92688.00;6224991;22;20062;-90
2021/05/03 02:31:55;;;;;;;0.75;0.70;;;;;;;5.76;39.49;92632.94;6252092;22;20019;-90
2021/05/03 02:34:50;;;;;;;;;;;;;;;6.06;38.88;92691.31;6275238;22;20027;-91
2021/05/03 02:37:34;;;;;;;;;;;;;;;;;;;;;
2021/05/03 02:40:30;;;;;;;;;;;;;;;;;;;;;
2021/05/03 02:43:12;;;;;;;0.63;0.63;;;;;;;5.50;39.27;92639.03;6275122;22;20024;-90
2021/05/03 02:46:16;;;;;;;;;;;;;;;;;;;;;
2021/05/03 02:52:15;;;;;;;0.70;0.70;;;;;;;5.50;39.09;92655.41;6276178;22;20090;-89
2021/05/03 02:55:12;;;;;;;0.70;0.70;;;;;;;5.79;39.95;92704.41;6276144;22;20396;-90
2021/05/03 02:58:07;;;;;;;;;;;;;;;;;;;;;
2021/05/03 03:00:48;;;;;;;0.70;0.70;;;;;;;5.53;39.16;92657.47;6277352;22;20083;-90
2021/05/03 03:03:43;;;;;;;0.60;0.60;;;;;;;5.78;38.75;92677.63;6276464;22;20090;-90
2021/05/03 03:06:53;;;;;;;;;;;;;;;;;;;;;
2021/05/03 03:09:32;;;;;;;0.70;0.70;;;;;;;5.84;38.87;92694.81;6275348;22;20106;-90
2021/05/03 03:12:37;;;;;;;0.93;0.77;;;;;;;5.75;38.02;92685.16;6275423;22;20089;-89
2021/05/03 03:15:33;;;;;;;;;;;;;;;;;;;;;
2021/05/03 03:21:34;;;;;;;0.65;0.65;;;;;;;5.66;38.57;92660.69;6242940;22;20692;-90
2021/05/03 03:24:52;;;;;;;0.93;0.80;;;;;;;5.53;38.74;92662.69;6155645;22;20490;-90
2021/05/03 03:27:46;;;;;;;;;;;;;;;;;;;;;
2021/05/03 03:31:24;;;;;;;0.80;0.70;;;;;;;5.69;39.45;92714.72;6237028;22;20092;-89
2021/05/03 03:33:56;;;;;;;0.82;0.63;;;;;;;5.57;39.45;92702.69;6217278;22;20604;-89
2021/05/03 03:36:47;;;;;;;0.95;0.73;;;;;;;5.62;38.92;92720.91;6222477;22;20421;-89
2021/05/03 03:39:25;;;;;;;0.75;0.70;;;;;;;5.47;39.06;92700.03;6243305;22;20014;-90
2021/05/03 03:42:05;;;;;;;1.08;0.82;;;;;;;5.32;39.17;92679.16;6228988;22;20449;-89
2021/05/03 03:45:02;;;;;;;1.02;0.73;;;;;;;5.55;38.79;92709.94;6229056;22;20009;-90
2021/05/03 03:47:56;;;;;;;1.15;0.80;;;;;;;5.54;38.80;92708.41;6245116;22;20049;-90
2021/05/03 03:50:47;;;;;;;;;;;;;;;;;;;;;
2021/05/03 03:53:21;;;;;;;0.77;0.77;;;;;;;5.32;38.97;92694.72;6253672;22;20076;-90
2021/05/03 03:56:23;;;;;;;1.30;0.90;;;;;;;5.37;39.09;92720.72;6253632;22;20028;-91
2021/05/03 03:59:25;;;;;;;;;;;;;;;;;;;;;
2021/05/03 04:02:33;;;;;;;0.70;0.70;;;;;;;5.13;39.11;92697.69;6195127;22;20026;-89
2021/05/03 04:12:00;;;;;;;0.90;0.80;;;;;;;5.18;38.73;92721.09;6217356;22;20029;-89
2021/05/03 04:24:44;;;;;;;1.85;0.95;;;;;;;5.34;38.01;92757.56;6216794;22;20034;-89
2021/05/03 04:27:36;;;;;;;0.88;0.70;;;;;;;5.57;37.67;92791.00;6225254;22;20065;-89
2021/05/03 04:30:11;;;;;;;0.77;0.73;;;;;;;5.26;37.86;92745.03;6229380;22;20032;-89
2021/05/03 04:33:24;;;;;;;;;;;;;;;;;;;;;
2021/05/03 04:36:09;;;;;;;0.90;0.70;;;;;;;5.47;37.99;92783.13;6252291;22;20399;-90
2021/05/03 04:39:26;;;;;;;2.05;0.88;;;;;;;5.25;38.27;92746.06;6228294;22;20436;-89
2021/05/03 04:42:16;;;;;;;;;;;;;;;;;;;;;
2021/05/03 04:45:15;;;;;;;0.75;0.63;;;;;;;5.33;38.34;92754.19;6253462;22;20030;-89
2021/05/03 04:47:54;;;;;;;1.50;0.80;;;;;;;5.41;38.23;92765.94;6212692;22;20053;-89
2021/05/03 04:51:17;;;;;;;0.70;0.60;;;;;;;5.63;37.41;92777.03;6206918;22;20025;-91
2021/05/03 04:54:04;;;;;;;2.53;0.90;;;;;;;5.61;38.12;92766.09;6251948;22;20018;-89
2021/05/03 04:56:40;;;;;;;1.08;0.90;;;;;;;5.82;37.47;92792.22;6223661;23;20717;-95
2021/05/03 05:00:20;;;;;;;1.08;0.85;;;;;;;5.92;36.81;92784.50;6244886;22;20025;-94
2021/05/03 05:03:23;;;;;;;3.17;0.90;;;;;;;6.34;36.31;92840.94;6152180;23;20172;-94
2021/05/03 05:06:43;;;;;;;0.65;0.65;;;;;;;6.54;36.21;92839.50;6216847;22;20083;-93
2021/05/03 05:09:25;;;;;;;0.73;0.73;;;;;;;6.25;35.77;92795.66;6246013;22;20092;-94
2021/05/03 05:12:23;;;;;;;0.85;0.82;;;;;;;6.50;36.00;92823.59;6152755;22;20076;-93
2021/05/03 05:15:41;;;;;;;0.77;0.70;;;;;;;6.39;35.93;92801.97;6226902;22;20022;-93
2021/05/03 05:18:55;;;;;;;2.17;0.82;;;;;;;6.38;35.27;92800.41;6163224;22;20108;-93
2021/05/03 05:21:56;;;;;;;;;;;;;;;;;;;;;
2021/05/03 05:28:22;;;;;;;0.80;0.80;;;;;;;6.86;35.50;92847.97;6158996;22;20021;-95
2021/05/03 05:31:26;;;;;;;1.25;0.90;;;;;;;6.79;35.82;92821.41;6230744;22;20013;-94
2021/05/03 05:34:13;;;;;;;1.65;0.98;;;;;;;6.74;35.13;92813.59;6151537;22;20112;-92
2021/05/03 05:37:12;;;;;;;;;;;;;;;;;;;;;
2021/05/03 05:40:17;;;;;;;1.13;0.90;;;;;;;7.26;35.70;92870.00;6226848;22;20464;-93
2021/05/03 05:46:37;;;;;;;1.67;0.95;;;;;;;7.22;35.43;92834.31;6256516;22;20548;-93
2021/05/03 05:49:51;;;;;;;1.30;0.93;;;;;;;7.54;35.59;92864.59;6236376;22;20014;-93
2021/05/03 05:52:56;;;;;;;;;;;;;;;;;;;;;
2021/05/03 05:55:33;;;;;;;0.88;0.80;;;;;;;7.67;33.28;92857.06;6270508;22;20022;-95
2021/05/03 05:58:32;;;;;;;;;;;;;;;;;;;;;
2021/05/03 06:01:57;;;;;;;2.92;1.17;;;;;;;8.23;34.58;92894.66;6238580;22;20104;-94
2021/05/03 06:05:14;;;;;;;1.70;1.17;;;;;;;9.61;32.22;92844.66;6202080;22;20025;-94
2021/05/03 06:08:34;;;;;;;1.27;1.00;;;;;;;14.54;24.03;92896.75;6213096;22;20018;-93
2021/05/03 06:14:22;;;;;;;1.42;1.10;;;;;;;17.00;20.13;92884.53;6246267;22;20027;-94
2021/05/03 06:17:29;;;;;;;1.83;1.27;;;;;;;18.70;18.34;92861.41;6210677;22;20018;-94
2021/05/03 06:23:54;;;;;;;1.02;0.93;;;;;;;21.07;16.30;92876.41;6229774;22;20060;-94
2021/05/03 06:26:56;;;;;;;1.65;1.10;;;;;;;22.66;15.01;92915.09;6256206;22;20075;-94
2021/05/03 06:29:47;;;;;;;1.35;1.13;;;;;;;23.35;13.29;92903.81;6219457;22;20097;-94
2021/05/03 06:33:01;;;;;;;1.58;1.10;;;;;;;24.50;13.59;92909.00;6232079;22;20026;-94
2021/05/03 06:35:45;;;;;;;;;;;;;;;;;;;;;
2021/05/03 06:42:21;;;;;;;1.10;1.00;;;;;;;24.24;13.31;92896.38;6155387;22;20021;-93
2021/05/03 06:45:10;;;;;;;1.58;1.10;;;;;;;24.40;12.25;92890.88;6233560;22;20033;-94
2021/05/03 06:48:29;;;;;;;0.98;0.70;;;;;;;23.61;13.48;92894.28;6166412;23;20449;-93
2021/05/03 06:54:41;;;;;;;0.75;0.70;;;;;;;19.11;16.79;92934.03;6249968;22;20091;-93
2021/05/03 06:57:24;;;;;;;;;;;;;;;;;;;;;
2021/05/03 07:04:15;;;;;;;1.17;0.90;;;;;;;16.49;19.99;92954.88;6224441;22;20052;-93
2021/05/03 07:07:13;;;;;;;;;;;;;;;;;;;;;
2021/05/03 07:14:03;;;;;;;;;;;;;;;;;;;;;
2021/05/03 07:16:44;;;;;;;0.73;0.73;;;;;;;14.85;23.31;92896.03;6248099;22;20489;-94
2021/05/03 07:20:01;;;;;;;;;;;;;;;;;;;;;
2021/05/03 07:26:45;;;;;;;1.02;0.70;;;;;;;14.32;21.60;92945.72;6147205;22;20345;-93
2021/05/03 07:29:55;;;;;;;;;;;;;;;;;;;;;
2021/05/03 07:39:45;;;;;;;1.17;1.00;;;;;;;12.81;23.76;92917.59;6146986;23;19920;-93
2021/05/03 07:43:15;;;;;;;;;;;;;;;;;;;;;
2021/05/03 07:46:19;;;;;;;0.95;0.82;;;;;;;12.94;24.92;92916.06;6151776;23;20089;-95
2021/05/03 07:49:43;;;;;;;;;;;;;;;;;;;;;
2021/05/03 08:00:33;;;;;;;1.45;0.90;;;;;;;11.59;30.49;92947.13;6223416;22;20087;-93
2021/05/03 08:03:20;;;;;;;2.35;0.95;;;;;;;11.57;30.88;92968.41;6194411;22;20020;-93
2021/05/03 08:06:51;;;;;;;;;;;;;;;;;;;;;
2021/05/03 08:13:53;;;;;;;;;;;;;;;;;;;;;
2021/05/03 08:20:52;;;;;;;;;;;;;;;;;;;;;
2021/05/03 08:31:10;;;;;;;;;;;;;;;;;;;;;
2021/05/03 08:33:51;;;;;;;3.58;0.80;;;;;;;11.07;31.00;92967.06;6255546;22;20029;-92
2021/05/03 09:13:35;;;;;;;3.05;1.10;;;;;;;11.56;34.27;92964.19;6163403;22;20040;-91
2021/05/03 09:17:10;;;;;;;2.10;1.10;;;;;;;11.63;36.53;92990.09;6159476;22;20020;-91
2021/05/03 09:20:46;;;;;;;2.00;1.38;;;;;;;11.43;36.09;92981.38;6222975;23;20020;-91
2021/05/03 09:39:48;;;;;;;;;;;;;;;;;;;;;
2021/05/03 09:54:34;;;;;;;2.55;1.58;;;;;;;13.09;39.29;93008.56;6139137;22;20083;-92
2021/05/03 09:57:45;;;;;;;;;;;;;;;;;;;;;
2021/05/03 10:01:04;;;;;;;3.15;1.40;;;;;;;12.76;39.60;92957.06;6238385;22;20022;-92
2021/05/03 10:07:21;;;;;;;;;;;;;;;;;;;;;
2021/05/03 10:33:44;;;;;;;3.27;1.40;;;;;;;13.25;40.36;92974.91;6272718;22;20057;-95
2021/05/03 10:37:00;;;;;;;;;;;;;;;;;;;;;
2021/05/03 10:43:43;;;;;;;2.22;1.05;;;;;;;12.54;33.34;92932.22;6290940;22;20069;-93
2021/05/03 10:50:15;;;;;;;1.13;0.95;;;;;;;12.94;32.59;92927.34;6291845;22;20090;-94
2021/05/03 10:56:50;;;;;;;;;;;;;;;;;;;;;
2021/05/03 11:06:36;;;;;;;3.95;1.60;;;;;;;12.92;34.82;92950.50;6304025;22;20123;-93
2021/05/03 11:13:20;;;;;;;1.67;1.13;;;;;;;12.74;38.12;92894.31;6269345;22;20098;-96
2021/05/03 11:16:33;;;;;;;2.15;1.30;;;;;;;11.92;38.92;92947.28;6282452;22;20027;-94
2021/05/03 11:20:07;;;;;;;;;;;;;;;;;;;;;
2021/05/03 11:23:44;;;;;;;2.97;1.65;;;;;;;12.31;39.51;92938.34;6242929;22;20526;-95
2021/05/03 11:34:16;;;;;;;3.10;1.88;;;;;;;11.58;38.72;92896.53;6264025;22;20020;-94
2021/05/03 11:44:27;;;;;;;4.60;1.40;;;;;;;12.41;37.42;92889.09;6278662;22;20094;-95
2021/05/03 11:47:27;;;;;;;2.88;1.50;;;;;;;12.90;37.86;92928.97;6251594;22;20007;-94
2021/05/03 12:00:58;;;;;;;2.92;1.50;;;;;;;12.98;38.78;92865.25;6246898;22;20161;-96
2021/05/03 12:04:30;;;;;;;;;;;;;;;;;;;;;
2021/05/03 12:08:05;;;;;;;;;;;;;;;;;;;;;
2021/05/03 12:11:39;;;;;;;;;;;;;;;;;;;;;
2021/05/03 13:12:31;;;;;;;3.20;1.60;;;;;;;13.80;33.03;92810.25;6244412;23;20020;-86
2021/05/03 13:37:47;;;;;;;2.40;1.50;;;;;;;14.27;29.85;92806.25;6144313;23;20067;-93
2021/05/03 13:48:08;;;;;;;;;;;;;;;;;;;;;
2021/05/03 13:51:42;;;;;;;;;;;;;;;;;;;;;
2021/05/03 13:57:50;;;;;;;2.42;1.35;;;;;;;14.24;32.45;92804.22;6164931;22;20067;-93
2021/05/03 14:00:38;;;;;;;;;;;;;;;;;;;;;
2021/05/03 14:04:21;;;;;;;3.75;1.45;;;;;;;14.51;33.03;92813.06;6259187;22;20018;-93
2021/05/03 14:07:00;;;;;;;2.47;1.30;;;;;;;13.95;33.69;92771.22;6186387;23;20017;-93
2021/05/03 14:09:48;;;;;;;;;;;;;;;;;;;;;
2021/05/03 14:12:43;;;;;;;2.70;1.58;;;;;;;14.66;31.01;92804.81;6241928;22;20016;-93
2021/05/03 14:15:33;;;;;;;2.10;1.35;;;;;;;13.70;32.26;92748.13;6238323;22;20103;-94
2021/05/03 14:21:44;;;;;;;3.45;1.60;;;;;;;13.74;34.60;92772.78;6206818;22;20035;-94
2021/05/03 14:24:35;;;;;;;3.90;1.52;;;;;;;14.22;35.10;92737.16;6253953;22;20015;-94
2021/05/03 14:27:28;;;;;;;2.78;1.65;;;;;;;13.75;31.20;92740.13;6228556;22;20065;-94
2021/05/03 14:30:35;;;;;;;;;;;;;;;;;;;;;
2021/05/03 14:36:51;;;;;;;3.10;1.50;;;;;;;14.41;33.07;92776.44;6260656;22;20095;-92
2021/05/03 14:49:59;;;;;;;2.17;1.40;;;;;;;14.91;30.49;92723.50;6244750;22;20336;-95
2021/05/03 14:55:50;;;;;;;2.45;1.42;;;;;;;14.61;32.01;92728.50;6279361;22;20099;-95
2021/05/03 15:02:20;;;;;;;;;;;;;;;;;;;;;
2021/05/03 15:08:43;;;;;;;;;;;;;;;;;;;;;
2021/05/03 15:15:44;;;;;;;2.63;1.27;;;;;;;14.83;33.12;92722.38;6271445;22;20065;-94
2021/05/03 15:22:38;;;;;;;4.68;2.33;;;;;;;14.11;33.83;92691.88;6277541;22;20031;-94
2021/05/03 15:26:20;;;;;;;6.30;2.13;;;;;;;14.45;32.65;92708.91;6276916;22;20024;-93
2021/05/03 15:38:44;;;;;;;7.72;1.65;;;;;;;14.10;33.33;92693.75;6256748;22;20079;-93
2021/05/03 15:44:36;;;;;;;;;;;;;;;;;;;;;
2021/05/03 15:47:49;;;;;;;2.72;1.50;;;;;;;14.67;32.99;92729.94;6277764;22;20027;-94
2021/05/03 15:53:48;;;;;;;3.42;1.80;;;;;;;14.16;32.41;92723.31;6279168;22;20443;-94
2021/05/03 15:56:57;;;;;;;2.45;1.50;;;;;;;13.87;33.42;92721.94;6285946;22;20400;-94
2021/05/03 16:00:06;;;;;;;6.35;1.90;;;;;;;13.78;32.95;92688.75;6253224;22;20391;-92
2021/05/03 16:03:24;;;;;;;3.22;1.60;;;;;;;13.76;32.50;92712.75;6302112;22;19996;-93
2021/05/03 16:06:39;;;;;;;3.05;1.58;;;;;;;13.71;33.63;92676.00;6304398;22;20002;-93
2021/05/03 16:09:23;;;;;;;;;;;;;;;;;;;;;
2021/05/03 16:12:25;;;;;;;3.72;1.88;;;;;;;14.47;33.01;92719.91;6282274;22;20024;-94
2021/05/03 16:18:18;;;;;;;;;;;;;;;;;;;;;
2021/05/03 16:21:02;;;;;;;;;;;;;;;;;;;;;
2021/05/03 16:24:12;;;;;;;;;;;;;;;;;;;;;
2021/05/03 16:26:53;;;;;;;;;;;;;;;;;;;;;
2021/05/03 16:30:39;;;;;;;;;;;;;;;;;;;;;
2021/05/03 16:34:08;;;;;;;;;;;;;;;;;;;;;
2021/05/03 16:40:14;;;;;;;5.47;2.55;;;;;;;13.81;33.16;92709.22;6259779;22;20024;-93
2021/05/03 16:43:32;;;;;;;;;;;;;;;13.37;33.78;92727.28;6271609;22;20024;-94
2021/05/03 16:49:23;;;;;;;3.80;2.20;;;;;;;13.60;34.35;92736.00;6271159;22;20012;-94
2021/05/03 16:52:31;;;;;;;3.70;2.15;;;;;;;13.15;34.45;92690.41;6249772;22;20028;-93
2021/05/03 16:55:47;;;;;;;5.53;1.90;;;;;;;13.20;34.34;92724.50;6270848;22;20047;-94
2021/05/03 16:59:41;;;;;;;;;;;;;;;;;;;;;
2021/05/03 17:02:26;;;;;;;3.83;1.90;;;;;;;13.16;33.63;92718.28;6260357;23;20047;-93
2021/05/03 17:05:50;;;;;;;3.40;1.52;;;;;;;12.83;34.56;92705.28;6234947;23;20020;-94
2021/05/03 17:08:32;;;;;;;4.38;1.83;;;;;;;12.90;34.76;92737.19;6235098;23;20624;-93
2021/05/03 17:11:31;;;;;;;3.35;1.90;;;;;;;12.61;35.55;92709.41;6232434;23;20026;-94
2021/05/03 17:17:38;;;;;;;4.10;1.85;;;;;;;12.54;35.57;92713.47;6255238;23;20392;-93
2021/05/03 17:21:44;;;;;;;;;;;;;;;;;;;;;
2021/05/03 17:29:39;;;;;;;;;;;;;;;;;;;;;
2021/05/03 17:49:08;;;;;;;;;;;;;;;;;;;;;
2021/05/03 17:53:42;;;;;;;12.38;6.50;;;;;;;11.40;43.44;92738.16;5957918;23;20089;-93
2021/05/03 18:12:10;;;;;;;10.18;6.03;;;;;;;11.27;45.38;92759.06;6150058;23;20036;-93
2021/05/03 18:25:05;;;;;;;37.75;21.60;;;;;;;11.29;47.67;92806.75;6189902;23;20027;-93
2021/05/03 18:28:32;;;;;;;6.97;3.00;;;;;;;11.02;48.58;92772.22;6221471;22;20111;-94
2021/05/03 18:31:49;;;;;;;7.03;3.60;;;;;;;11.13;48.94;92809.53;6191659;22;20015;-92
2021/05/03 18:34:45;;;;;;;5.05;2.90;;;;;;;11.14;49.02;92794.59;6256655;22;20083;-94
2021/05/03 18:37:57;;;;;;;7.20;3.20;;;;;;;11.14;49.80;92815.56;6252535;22;20561;-94
2021/05/03 18:40:23;;;;;;;5.68;2.95;;;;;;;10.84;50.42;92791.28;6255203;22;20016;-86
2021/05/03 18:42:49;;;;;;;6.20;3.55;;;;;;;10.68;50.14;92772.34;6256802;22;20090;-85
2021/05/03 18:46:00;;;;;;;8.65;3.40;;;;;;;10.93;50.46;92823.66;6233792;22;20023;-94
2021/05/03 18:49:07;;;;;;;;;;;;;;;;;;;;;
2021/05/03 18:56:56;;;;;;;;;;;;;;;;;;;;;
2021/05/03 19:12:08;;;;;;;;;;;;;;;;;;;;;
2021/05/03 19:23:26;;;;;;;5.28;2.90;;;;;;;10.13;54.73;92845.88;6152211;23;20096;-93
2021/05/03 19:27:04;;;;;;;;;;;;;;;;;;;;;
2021/05/03 19:30:46;;;;;;;6.15;2.78;;;;;;;9.73;55.61;92826.03;6071030;23;20093;-94
2021/05/03 19:53:13;;;;;;;;;;;;;;;;;;;;;
2021/05/03 20:13:04;;;;;;;;;;;;;;;;;;;;;
2021/05/03 20:16:34;;;;;;;12.50;5.72;;;;;;;8.92;58.84;92849.69;6244522;22;20019;-91
2021/05/03 20:22:21;;;;;;;10.30;4.30;;;;;;;8.73;59.57;92849.47;6240034;22;20111;-91
2021/05/03 20:25:16;;;;;;;6.47;3.78;;;;;;;8.93;59.40;92873.97;6274778;22;20079;-91
2021/05/03 20:27:49;;;;;;;7.68;3.45;;;;;;;8.83;59.31;92872.16;6249167;22;20031;-91
2021/05/03 20:31:03;;;;;;;9.38;4.85;;;;;;;8.70;59.99;92857.84;6253248;22;20030;-90
2021/05/03 20:36:43;;;;;;;6.88;3.85;;;;;;;8.59;60.41;92847.69;6250695;22;20091;-90
2021/05/03 20:42:44;;;;;;;5.93;3.13;;;;;;;8.52;60.03;92856.56;6255869;22;20510;-89
2021/05/03 20:45:40;;;;;;;8.30;3.67;;;;;;;8.85;60.00;92901.41;6248749;22;20027;-90
2021/05/03 20:48:15;;;;;;;7.55;3.15;;;;;;;8.52;59.56;92861.00;6229260;22;20007;-90
2021/05/03 20:50:50;;;;;;;4.97;3.33;;;;;;;8.58;59.22;92864.38;6245682;22;20015;-90
2021/05/03 20:53:54;;;;;;;7.78;3.40;;;;;;;8.68;59.38;92869.59;6223874;22;20019;-90
2021/05/03 20:56:59;;;;;;;5.97;3.38;;;;;;;8.74;59.47;92873.75;6251055;22;20492;-90
2021/05/03 20:59:58;;;;;;;5.97;2.90;;;;;;;8.85;59.69;92890.97;6259305;22;20042;-89
2021/05/03 21:03:08;;;;;;;5.10;2.95;;;;;;;8.92;60.45;92908.97;6274436;22;20091;-89
2021/05/03 21:08:49;;;;;;;5.80;3.30;;;;;;;8.68;60.85;92869.59;6246826;22;20024;-91
2021/05/03 21:11:39;;;;;;;;;;;;;;;;;;;;;
2021/05/03 21:14:19;;;;;;;5.28;3.30;;;;;;;8.90;61.41;92914.44;6256340;22;20031;-90
2021/05/03 21:17:13;;;;;;;6.30;3.05;;;;;;;8.74;62.04;92892.03;6282716;22;20082;-90
2021/05/03 21:20:04;;;;;;;;;;;;;;;;;;;;;
2021/05/03 21:22:43;;;;;;;7.22;3.30;;;;;;;8.73;61.92;92880.00;6279182;22;20023;-91
2021/05/03 21:25:33;;;;;;;;;;;;;;;;;;;;;
2021/05/03 21:28:25;;;;;;;;;;;;;;;;;;;;;
2021/05/03 21:31:26;;;;;;;;;;;;;;;;;;;;;
2021/05/03 21:34:00;;;;;;;6.35;3.00;;;;;;;9.06;61.51;92911.78;6261217;22;20019;-90
2021/05/03 21:36:43;;;;;;;5.95;3.05;;;;;;;9.23;61.99;92927.94;6254758;22;20049;-91
2021/05/03 21:42:32;;;;;;;7.68;3.10;;;;;;;8.94;61.73;92872.91;6278487;22;20007;-90
2021/05/03 21:45:18;;;;;;;;;;;;;;;;;;;;;
2021/05/03 21:50:59;;;;;;;6.57;3.05;;;;;;;8.97;62.29;92877.59;6270808;22;20026;-90
2021/05/03 21:54:04;;;;;;;6.63;3.00;;;;;;;9.00;62.72;92884.91;6257942;22;20011;-90
2021/05/03 21:57:00;;;;;;;;;;;;;;;;;;;;;
2021/05/03 21:59:41;;;;;;;6.57;3.13;;;;;;;9.00;62.33;92876.28;6281425;22;20021;-91
2021/05/03 22:02:28;;;;;;;6.43;2.97;;;;;;;9.17;62.45;92910.72;6235421;22;20034;-90
2021/05/03 22:05:43;;;;;;;7.65;3.28;;;;;;;9.03;63.06;92876.53;6256690;22;20015;-91
2021/05/03 22:08:31;;;;;;;;;;;;;;;;;;;;;
2021/05/03 22:11:27;;;;;;;;;;;;;;;;;;;;;
2021/05/03 22:14:09;;;;;;;7.78;2.63;;;;;;;9.02;62.81;92880.19;6279878;22;20481;-90
2021/05/03 22:17:00;;;;;;;6.97;2.60;;;;;;;9.01;62.33;92877.88;6256765;22;20019;-90
2021/05/03 22:23:40;;;;;;;4.63;2.50;;;;;;;9.21;62.38;92908.34;6194825;23;20103;-90
2021/05/03 22:29:14;;;;;;;10.98;2.88;;;;;;;9.31;62.29;92924.75;6287742;22;20019;-91
2021/05/03 22:32:09;;;;;;;;;;;;;;;;;;;;;
2021/05/03 22:35:16;;;;;;;;;;;;;;;;;;;;;
2021/05/03 22:41:27;;;;;;;6.63;2.85;;;;;;;9.00;62.27;92871.06;6279690;22;20019;-90
2021/05/03 23:18:12;;;;;;;;;;;;;;;;;;;;;
2021/05/03 23:21:16;;;;;;;6.05;2.80;;;;;;;8.74;61.89;92842.44;6259006;22;20019;-91
2021/05/03 23:27:21;;;;;;;7.07;3.03;;;;;;;8.80;61.62;92845.78;6237252;22;20029;-90
2021/05/03 23:32:52;;;;;;;5.70;2.83;;;;;;;8.61;62.33;92825.50;6268890;22;20050;-90
2021/05/03 23:38:59;;;;;;;6.82;2.90;;;;;;;8.50;62.41;92821.34;6296239;22;20024;-91
2021/05/03 23:42:02;;;;;;;;;;;;;;;;;;;;;
2021/05/03 23:45:02;;;;;;;;;;;;;;;;;;;;;
2021/05/03 23:48:09;;;;;;;;;;;;;;;;;;;;;
2021/05/03 23:50:56;;;;;;;;;;;;;;;;;;;;;
2021/05/03 23:53:41;;;;;;;;;;;;;;;;;;;;;
2021/05/03 23:56:14;;;;;;;7.45;3.30;;;;;;;8.42;63.42;92795.78;6280026;22;20015;-90
2021/05/03 23:59:18;;;;;;;;;;;;;;;;;;;;;
